createdAt,value
2022-08-17T00:03:38.819Z,16.9
2022-08-17T00:09:23.681Z,16.9
2022-08-17T00:15:49.064Z,16.8
2022-08-17T00:23:49.113Z,16.6
2022-08-17T00:29:42.561Z,16.4
2022-08-17T00:36:40.375Z,16.1
2022-08-17T00:42:32.893Z,15.9
2022-08-17T00:48:26.222Z,15.8
2022-08-17T00:53:57.484Z,15.5
2022-08-17T00:59:56.076Z,15.3
2022-08-17T01:05:52.392Z,15.1
2022-08-17T01:12:13.134Z,14.9
2022-08-17T01:17:39.203Z,14.8
2022-08-17T01:23:23.628Z,14.8
2022-08-17T01:29:42.877Z,14.7
2022-08-17T01:36:17.775Z,14.6
2022-08-17T01:41:54.103Z,14.6
2022-08-17T01:47:47.643Z,14.4
2022-08-17T01:53:24.867Z,14.3
2022-08-17T01:59:04.833Z,14.2
2022-08-17T02:05:29.464Z,14.1
2022-08-17T02:12:55.907Z,14
2022-08-17T02:18:45.052Z,13.9
2022-08-17T02:25:17.922Z,13.8
2022-08-17T02:31:51.733Z,13.7
2022-08-17T02:37:45.950Z,13.6
2022-08-17T02:43:27.905Z,13.6
2022-08-17T02:49:46.345Z,13.5
2022-08-17T02:56:20.251Z,13.4
2022-08-17T03:02:05.988Z,13.4
2022-08-17T03:07:43.085Z,13.4
2022-08-17T03:13:24.244Z,13.3
2022-08-17T03:18:41.667Z,13.3
2022-08-17T03:25:04.301Z,13.3
2022-08-17T03:30:49.885Z,13.2
2022-08-17T03:36:29.637Z,13.1
2022-08-17T03:43:22.484Z,13.1
2022-08-17T03:49:20.415Z,13.2
2022-08-17T03:54:58.996Z,13.2
2022-08-17T04:00:56.073Z,13.3
2022-08-17T04:06:34.595Z,13.4
2022-08-17T04:12:17.792Z,13.6
2022-08-17T04:17:44.836Z,13.8
2022-08-17T04:23:23.895Z,14.1
2022-08-17T04:29:28.372Z,14.4
2022-08-17T04:36:12.462Z,14.9
2022-08-17T04:41:59.799Z,15.4
2022-08-17T04:48:12.753Z,16.5
2022-08-17T05:00:02.387Z,20.5
2022-08-17T05:05:49.878Z,22.3
2022-08-17T05:11:35.881Z,23.9
2022-08-17T05:17:29.735Z,26
2022-08-17T05:22:53.600Z,27.9
2022-08-17T05:29:33.685Z,30.5
2022-08-17T05:35:31.957Z,33.3
2022-08-17T05:41:34.956Z,35.7
2022-08-17T05:47:43.912Z,38.4
2022-08-17T05:53:37.723Z,41.3
2022-08-17T05:59:44.916Z,44.4
2022-08-17T06:05:29.895Z,47.4
2022-08-17T06:11:14.955Z,50.4
2022-08-17T06:17:24.101Z,53.4
2022-08-17T06:23:15.149Z,56.4
2022-08-17T06:28:47.911Z,48.1
2022-08-17T06:34:40.931Z,48.2
2022-08-17T06:40:40.067Z,53.5
2022-08-17T06:47:45.589Z,48.3
2022-08-17T06:53:54.033Z,52.2
2022-08-17T07:00:29.508Z,52.3
2022-08-17T07:06:30.432Z,51.4
2022-08-17T07:12:13.489Z,52.7
2022-08-17T07:18:04.785Z,53.5
2022-08-17T07:24:29.182Z,54.5
2022-08-17T07:30:11.159Z,55.5
2022-08-17T07:35:57.350Z,56.3
2022-08-17T07:42:47.187Z,57
2022-08-17T07:48:32.221Z,57.4
2022-08-17T07:55:05.060Z,58.3
2022-08-17T08:01:06.877Z,59
2022-08-17T08:07:35.194Z,59.8
2022-08-17T08:13:12.239Z,60.7
2022-08-17T08:19:28.951Z,60.8
2022-08-17T08:25:53.647Z,60.6
2022-08-17T08:31:23.586Z,61.3
2022-08-17T08:38:48.699Z,62.1
2022-08-17T08:44:59.359Z,62.4
2022-08-17T08:52:20.934Z,62.6
2022-08-17T08:58:57.621Z,63.2
2022-08-17T09:06:04.670Z,63.8
2022-08-17T09:12:36.912Z,62.5
2022-08-17T09:19:16.606Z,64.3
2022-08-17T09:25:14.124Z,65.1
2022-08-17T09:30:52.627Z,65.4
2022-08-17T09:36:48.672Z,65.6
2022-08-17T09:42:39.341Z,65.6
2022-08-17T09:48:24.227Z,65.1
2022-08-17T09:55:11.662Z,66.3
2022-08-17T10:01:24.109Z,66.3
2022-08-17T10:07:12.687Z,66.7
2022-08-17T10:13:09.823Z,67.4
2022-08-17T10:19:27.066Z,67.5
2022-08-17T10:26:28.495Z,67.4
2022-08-17T10:33:07.757Z,68.1
2022-08-17T10:38:50.632Z,68.8
2022-08-17T10:45:30.623Z,69.2
2022-08-17T10:51:53.925Z,69.1
2022-08-17T10:57:36.219Z,66
2022-08-17T11:03:19.322Z,70
2022-08-17T11:08:57.185Z,70.6
2022-08-17T11:14:35.175Z,71.3
2022-08-17T11:20:18.744Z,67.9
2022-08-17T11:25:59.598Z,69.7
2022-08-17T11:31:55.995Z,71.8
2022-08-17T11:37:38.544Z,62.2
2022-08-17T11:43:07.433Z,60.8
2022-08-17T11:49:13.920Z,72
2022-08-17T11:55:51.162Z,65.3
2022-08-17T12:01:30.049Z,68.4
2022-08-17T12:07:04.853Z,66.3
2022-08-17T12:13:27.390Z,61.7
2022-08-17T12:20:19.433Z,61
2022-08-17T12:26:01.964Z,67.1
2022-08-17T12:32:46.806Z,78.8
2022-08-17T12:38:26.746Z,65.1
2022-08-17T12:44:25.410Z,67.4
2022-08-17T12:50:45.624Z,72.3
2022-08-17T12:56:29.662Z,69
2022-08-17T13:02:23.055Z,65.3
2022-08-17T13:08:11.827Z,72.1
2022-08-17T13:14:00.201Z,67.9
2022-08-17T13:19:39.787Z,61.2
2022-08-17T13:25:29.046Z,60.1
2022-08-17T13:31:11.367Z,59.3
2022-08-17T13:37:50.634Z,58
2022-08-17T13:43:43.381Z,58.3
2022-08-17T13:50:05.529Z,63.3
2022-08-17T13:55:51.782Z,65.5
2022-08-17T14:02:29.705Z,66.8
2022-08-17T14:08:40.923Z,67.3
2022-08-17T14:14:23.638Z,66.9
2022-08-17T14:20:57.404Z,66.3
2022-08-17T14:26:46.008Z,65.4
2022-08-17T14:33:06.039Z,64.2
2022-08-17T14:38:49.338Z,62.9
2022-08-17T14:44:30.861Z,61.4
2022-08-17T14:50:27.324Z,59.3
2022-08-17T14:56:20.879Z,57.8
2022-08-17T15:02:14.791Z,56.4
2022-08-17T15:07:59.895Z,55.3
2022-08-17T15:13:52.132Z,53.9
2022-08-17T15:19:55.932Z,52.2
2022-08-17T15:25:37.514Z,50.8
2022-08-17T15:31:29.953Z,49.6
2022-08-17T15:37:15.348Z,48.3
2022-08-17T15:43:10.345Z,46.8
2022-08-17T15:48:52.905Z,45.4
2022-08-17T15:54:38.954Z,44.3
2022-08-17T16:00:28.846Z,43
2022-08-17T16:09:11.609Z,40.9
2022-08-17T16:15:08.783Z,39.4
2022-08-17T16:21:11.685Z,38.1
2022-08-17T16:27:28.991Z,36.9
2022-08-17T16:33:22.035Z,36.1
2022-08-17T16:39:30.792Z,35.4
2022-08-17T16:45:08.675Z,34.7
2022-08-17T16:51:20.960Z,34.1
2022-08-17T16:57:09.275Z,33.4
2022-08-17T17:03:36.257Z,32.8
2022-08-17T17:09:34.582Z,32.2
2022-08-17T17:15:38.767Z,31.6
2022-08-17T17:21:27.625Z,31
2022-08-17T17:27:07.797Z,30.3
2022-08-17T17:32:56.008Z,29.6
2022-08-17T17:38:37.187Z,28.8
2022-08-17T17:44:53.933Z,28.2
2022-08-17T17:51:00.032Z,27.6
2022-08-17T17:58:12.534Z,26.9
2022-08-17T18:03:50.286Z,26.4
2022-08-17T18:09:53.658Z,25.9
2022-08-17T18:16:05.701Z,25.4
2022-08-17T18:22:06.674Z,24.8
2022-08-17T18:27:45.368Z,24.2
2022-08-17T18:33:17.176Z,23.5
2022-08-17T18:39:31.543Z,23.1
2022-08-17T18:45:26.989Z,22.7
2022-08-17T18:51:40.004Z,22.4
2022-08-17T18:57:10.803Z,22.2
2022-08-17T19:03:21.464Z,21.9
2022-08-17T19:08:48.583Z,21.9
2022-08-17T19:14:15.126Z,21.8
2022-08-17T19:19:59.823Z,21.7
2022-08-17T19:25:50.170Z,21.6
2022-08-17T19:32:29.464Z,21.6
2022-08-17T19:37:59.242Z,21.5
2022-08-17T19:44:02.209Z,21.4
2022-08-17T19:50:23.419Z,21.3
2022-08-17T19:56:27.364Z,21.3
2022-08-17T20:02:11.847Z,21.2
2022-08-17T20:08:26.436Z,21.1
2022-08-17T20:14:07.474Z,21.1
2022-08-17T20:19:59.375Z,21
2022-08-17T20:26:04.555Z,20.9
2022-08-17T20:31:47.184Z,20.8
2022-08-17T20:37:12.514Z,20.6
2022-08-17T20:42:37.927Z,20.4
2022-08-17T20:48:37.822Z,20.1
2022-08-17T20:54:18.113Z,19.8
2022-08-17T20:59:50.040Z,19.6
2022-08-17T21:05:38.001Z,19.4
2022-08-17T21:11:09.000Z,19.2
2022-08-17T21:17:27.482Z,19
2022-08-17T21:23:27.485Z,18.8
2022-08-17T21:29:46.678Z,18.6
2022-08-17T21:35:38.751Z,18.4
2022-08-17T21:41:07.869Z,18.3
2022-08-17T21:46:49.122Z,18.1
2022-08-17T21:52:15.552Z,18.1
2022-08-17T21:57:52.737Z,18
2022-08-17T22:03:38.887Z,17.9
2022-08-17T22:09:15.761Z,17.8
2022-08-17T22:15:10.047Z,17.8
2022-08-17T22:21:00.343Z,17.6
2022-08-17T22:26:46.740Z,17.6
2022-08-17T22:32:29.338Z,17.4
2022-08-17T22:38:18.117Z,17.3
2022-08-17T22:44:01.160Z,17.2
2022-08-17T22:49:53.029Z,17.1
2022-08-17T23:01:00.885Z,16.9
2022-08-17T23:06:53.946Z,16.8
2022-08-17T23:12:48.383Z,16.6
2022-08-17T23:18:37.655Z,16.5
2022-08-17T23:24:05.829Z,16.4
2022-08-17T23:29:14.345Z,16.3
2022-08-17T23:34:41.685Z,16.2
2022-08-17T23:40:39.289Z,16.1
2022-08-17T23:46:15.899Z,16.1
2022-08-17T23:52:02.899Z,16
2022-08-17T23:58:07.801Z,15.9
